sensor_id;sensor_type;location;lat;lon;timestamp;temperature;humidity
68139;DHT22;54940;50.842;4.410;2023-08-08T00:01:35;15.10;99.90
68139;DHT22;54940;50.842;4.410;2023-08-08T00:04:01;15.20;99.90
68139;DHT22;54940;50.842;4.410;2023-08-08T00:06:26;15.10;99.90
68139;DHT22;54940;50.842;4.410;2023-08-08T00:08:52;15.20;99.90
68139;DHT22;54940;50.842;4.410;2023-08-08T00:11:18;15.10;99.90
68139;DHT22;54940;50.842;4.410;2023-08-08T00:13:43;15.20;99.90
68139;DHT22;54940;50.842;4.410;2023-08-08T00:16:09;15.10;99.90
68139;DHT22;54940;50.842;4.410;2023-08-08T00:18:35;15.00;99.90
68139;DHT22;54940;50.842;4.410;2023-08-08T00:21:01;15.00;99.90
68139;DHT22;54940;50.842;4.410;2023-08-08T00:23:26;14.90;99.90
68139;DHT22;54940;50.842;4.410;2023-08-08T00:25:52;14.90;99.90
68139;DHT22;54940;50.842;4.410;2023-08-08T00:28:18;15.00;99.90
68139;DHT22;54940;50.842;4.410;2023-08-08T00:30:44;15.00;99.90
68139;DHT22;54940;50.842;4.410;2023-08-08T00:33:09;15.00;99.90
68139;DHT22;54940;50.842;4.410;2023-08-08T00:35:35;14.90;99.90
68139;DHT22;54940;50.842;4.410;2023-08-08T00:38:00;14.70;99.90
68139;DHT22;54940;50.842;4.410;2023-08-08T00:40:26;14.70;99.90
68139;DHT22;54940;50.842;4.410;2023-08-08T00:42:54;14.80;99.90
68139;DHT22;54940;50.842;4.410;2023-08-08T00:45:20;14.70;99.90
68139;DHT22;54940;50.842;4.410;2023-08-08T00:47:46;14.70;99.90
68139;DHT22;54940;50.842;4.410;2023-08-08T00:50:11;14.70;99.90
68139;DHT22;54940;50.842;4.410;2023-08-08T00:52:38;14.80;99.90
68139;DHT22;54940;50.842;4.410;2023-08-08T00:55:05;14.80;99.90
68139;DHT22;54940;50.842;4.410;2023-08-08T00:57:34;14.70;99.90
68139;DHT22;54940;50.842;4.410;2023-08-08T01:00:05;14.70;99.90
68139;DHT22;54940;50.842;4.410;2023-08-08T01:02:31;14.70;99.90
68139;DHT22;54940;50.842;4.410;2023-08-08T01:04:59;14.60;99.90
68139;DHT22;54940;50.842;4.410;2023-08-08T01:10:20;14.60;99.90
68139;DHT22;54940;50.842;4.410;2023-08-08T01:12:54;14.60;99.90
68139;DHT22;54940;50.842;4.410;2023-08-08T01:15:21;14.60;99.90
68139;DHT22;54940;50.842;4.410;2023-08-08T01:17:48;14.60;99.90
68139;DHT22;54940;50.842;4.410;2023-08-08T01:20:14;14.60;99.90
68139;DHT22;54940;50.842;4.410;2023-08-08T01:25:40;14.60;99.90
68139;DHT22;54940;50.842;4.410;2023-08-08T01:28:07;14.50;99.90
68139;DHT22;54940;50.842;4.410;2023-08-08T01:30:33;14.40;99.90
68139;DHT22;54940;50.842;4.410;2023-08-08T01:32:59;14.50;99.90
68139;DHT22;54940;50.842;4.410;2023-08-08T01:35:28;14.50;99.90
68139;DHT22;54940;50.842;4.410;2023-08-08T01:37:58;14.50;99.90
68139;DHT22;54940;50.842;4.410;2023-08-08T01:40:26;14.50;99.90
68139;DHT22;54940;50.842;4.410;2023-08-08T01:42:53;14.50;99.90
68139;DHT22;54940;50.842;4.410;2023-08-08T01:45:22;14.50;99.90
68139;DHT22;54940;50.842;4.410;2023-08-08T01:47:51;14.50;99.90
68139;DHT22;54940;50.842;4.410;2023-08-08T01:50:17;14.50;99.90
68139;DHT22;54940;50.842;4.410;2023-08-08T01:52:42;14.60;99.90
68139;DHT22;54940;50.842;4.410;2023-08-08T01:55:08;14.60;99.90
68139;DHT22;54940;50.842;4.410;2023-08-08T01:57:36;14.60;99.90
68139;DHT22;54940;50.842;4.410;2023-08-08T02:00:02;14.60;99.90
68139;DHT22;54940;50.842;4.410;2023-08-08T02:02:29;14.50;99.90
68139;DHT22;54940;50.842;4.410;2023-08-08T02:04:55;14.40;99.90
68139;DHT22;54940;50.842;4.410;2023-08-08T02:07:21;14.30;99.90
68139;DHT22;54940;50.842;4.410;2023-08-08T02:09:46;14.30;99.90
68139;DHT22;54940;50.842;4.410;2023-08-08T02:12:16;14.30;99.90
68139;DHT22;54940;50.842;4.410;2023-08-08T02:14:42;14.30;99.90
68139;DHT22;54940;50.842;4.410;2023-08-08T02:17:07;14.30;99.90
68139;DHT22;54940;50.842;4.410;2023-08-08T02:19:33;14.30;99.90
68139;DHT22;54940;50.842;4.410;2023-08-08T02:22:01;14.40;99.90
68139;DHT22;54940;50.842;4.410;2023-08-08T02:24:27;14.30;99.90
68139;DHT22;54940;50.842;4.410;2023-08-08T02:26:52;14.30;99.90
68139;DHT22;54940;50.842;4.410;2023-08-08T02:29:18;14.30;99.90
68139;DHT22;54940;50.842;4.410;2023-08-08T02:31:44;14.30;99.90
68139;DHT22;54940;50.842;4.410;2023-08-08T02:34:12;14.30;99.90
68139;DHT22;54940;50.842;4.410;2023-08-08T02:36:37;14.30;99.90
68139;DHT22;54940;50.842;4.410;2023-08-08T02:39:03;14.30;99.90
68139;DHT22;54940;50.842;4.410;2023-08-08T02:41:29;14.30;99.90
68139;DHT22;54940;50.842;4.410;2023-08-08T02:43:54;14.30;99.90
68139;DHT22;54940;50.842;4.410;2023-08-08T02:46:20;14.30;99.90
68139;DHT22;54940;50.842;4.410;2023-08-08T02:48:46;14.30;99.90
68139;DHT22;54940;50.842;4.410;2023-08-08T02:51:11;14.40;99.90
68139;DHT22;54940;50.842;4.410;2023-08-08T02:53:37;14.30;99.90
68139;DHT22;54940;50.842;4.410;2023-08-08T02:56:02;14.30;99.90
68139;DHT22;54940;50.842;4.410;2023-08-08T02:58:28;14.20;99.90
68139;DHT22;54940;50.842;4.410;2023-08-08T03:00:54;14.30;99.90
68139;DHT22;54940;50.842;4.410;2023-08-08T03:03:19;14.30;99.90
68139;DHT22;54940;50.842;4.410;2023-08-08T03:05:47;14.30;99.90
68139;DHT22;54940;50.842;4.410;2023-08-08T03:08:13;14.20;99.90
68139;DHT22;54940;50.842;4.410;2023-08-08T03:10:39;14.20;99.90
68139;DHT22;54940;50.842;4.410;2023-08-08T03:13:04;14.20;99.90
68139;DHT22;54940;50.842;4.410;2023-08-08T03:15:30;14.20;99.90
68139;DHT22;54940;50.842;4.410;2023-08-08T03:17:56;14.10;99.90
68139;DHT22;54940;50.842;4.410;2023-08-08T03:20:24;14.20;99.90
68139;DHT22;54940;50.842;4.410;2023-08-08T03:22:49;14.10;99.90
68139;DHT22;54940;50.842;4.410;2023-08-08T03:25:15;14.10;99.90
68139;DHT22;54940;50.842;4.410;2023-08-08T03:27:42;14.00;99.90
68139;DHT22;54940;50.842;4.410;2023-08-08T03:30:08;14.10;99.90
68139;DHT22;54940;50.842;4.410;2023-08-08T03:32:34;14.10;99.90
68139;DHT22;54940;50.842;4.410;2023-08-08T03:34:59;14.10;99.90
68139;DHT22;54940;50.842;4.410;2023-08-08T03:37:25;14.10;99.90
68139;DHT22;54940;50.842;4.410;2023-08-08T03:39:50;14.20;99.90
68139;DHT22;54940;50.842;4.410;2023-08-08T03:42:16;14.20;99.90
68139;DHT22;54940;50.842;4.410;2023-08-08T03:44:42;14.20;99.90
68139;DHT22;54940;50.842;4.410;2023-08-08T03:47:07;14.10;99.90
68139;DHT22;54940;50.842;4.410;2023-08-08T03:49:33;14.10;99.90
68139;DHT22;54940;50.842;4.410;2023-08-08T03:52:01;14.10;99.90
68139;DHT22;54940;50.842;4.410;2023-08-08T03:54:27;14.10;99.90
68139;DHT22;54940;50.842;4.410;2023-08-08T03:56:52;14.20;99.90
68139;DHT22;54940;50.842;4.410;2023-08-08T03:59:20;14.10;99.90
68139;DHT22;54940;50.842;4.410;2023-08-08T04:01:46;14.20;99.90
68139;DHT22;54940;50.842;4.410;2023-08-08T04:04:11;14.20;99.90
68139;DHT22;54940;50.842;4.410;2023-08-08T04:06:37;14.20;99.90
68139;DHT22;54940;50.842;4.410;2023-08-08T04:09:02;14.10;99.90
68139;DHT22;54940;50.842;4.410;2023-08-08T04:11:28;14.10;99.90
68139;DHT22;54940;50.842;4.410;2023-08-08T04:13:54;14.00;99.90
68139;DHT22;54940;50.842;4.410;2023-08-08T04:16:20;14.00;99.90
68139;DHT22;54940;50.842;4.410;2023-08-08T04:18:45;14.00;99.90
68139;DHT22;54940;50.842;4.410;2023-08-08T04:21:11;14.00;99.90
68139;DHT22;54940;50.842;4.410;2023-08-08T04:23:37;14.00;99.90
68139;DHT22;54940;50.842;4.410;2023-08-08T04:26:02;13.90;99.90
68139;DHT22;54940;50.842;4.410;2023-08-08T04:28:30;13.90;99.90
68139;DHT22;54940;50.842;4.410;2023-08-08T04:30:56;14.00;99.90
68139;DHT22;54940;50.842;4.410;2023-08-08T04:33:24;14.00;99.90
68139;DHT22;54940;50.842;4.410;2023-08-08T04:35:49;13.90;99.90
68139;DHT22;54940;50.842;4.410;2023-08-08T04:38:15;14.00;99.90
68139;DHT22;54940;50.842;4.410;2023-08-08T04:40:41;14.00;99.90
68139;DHT22;54940;50.842;4.410;2023-08-08T04:43:07;14.00;99.90
68139;DHT22;54940;50.842;4.410;2023-08-08T04:45:32;14.00;99.90
68139;DHT22;54940;50.842;4.410;2023-08-08T04:47:59;14.10;99.90
68139;DHT22;54940;50.842;4.410;2023-08-08T04:50:24;14.10;99.90
68139;DHT22;54940;50.842;4.410;2023-08-08T04:52:50;14.10;99.90
68139;DHT22;54940;50.842;4.410;2023-08-08T04:55:16;14.10;99.90
68139;DHT22;54940;50.842;4.410;2023-08-08T04:57:41;14.10;99.90
68139;DHT22;54940;50.842;4.410;2023-08-08T05:00:07;14.10;99.90
68139;DHT22;54940;50.842;4.410;2023-08-08T05:02:34;14.20;99.90
68139;DHT22;54940;50.842;4.410;2023-08-08T05:05:00;14.40;99.90
68139;DHT22;54940;50.842;4.410;2023-08-08T05:07:27;14.90;99.90
68139;DHT22;54940;50.842;4.410;2023-08-08T05:09:52;15.40;99.90
68139;DHT22;54940;50.842;4.410;2023-08-08T05:12:18;15.80;99.90
68139;DHT22;54940;50.842;4.410;2023-08-08T05:14:44;15.90;99.90
68139;DHT22;54940;50.842;4.410;2023-08-08T05:17:09;15.90;99.90
68139;DHT22;54940;50.842;4.410;2023-08-08T05:19:35;15.70;99.90
68139;DHT22;54940;50.842;4.410;2023-08-08T05:22:01;15.80;99.90
68139;DHT22;54940;50.842;4.410;2023-08-08T05:24:28;16.10;99.90
68139;DHT22;54940;50.842;4.410;2023-08-08T05:26:54;16.50;99.90
68139;DHT22;54940;50.842;4.410;2023-08-08T05:29:20;16.90;99.90
68139;DHT22;54940;50.842;4.410;2023-08-08T05:31:46;17.10;99.90
68139;DHT22;54940;50.842;4.410;2023-08-08T05:34:13;17.60;99.90
68139;DHT22;54940;50.842;4.410;2023-08-08T05:36:38;17.70;99.90
68139;DHT22;54940;50.842;4.410;2023-08-08T05:39:04;17.90;99.90
68139;DHT22;54940;50.842;4.410;2023-08-08T05:41:32;17.60;99.90
68139;DHT22;54940;50.842;4.410;2023-08-08T05:43:58;17.50;99.90
68139;DHT22;54940;50.842;4.410;2023-08-08T05:46:23;17.30;99.90
68139;DHT22;54940;50.842;4.410;2023-08-08T05:48:49;17.10;99.90
68139;DHT22;54940;50.842;4.410;2023-08-08T05:51:15;17.30;99.90
68139;DHT22;54940;50.842;4.410;2023-08-08T05:53:40;17.10;99.90
68139;DHT22;54940;50.842;4.410;2023-08-08T05:56:06;17.00;99.90
68139;DHT22;54940;50.842;4.410;2023-08-08T05:58:32;16.70;99.90
68139;DHT22;54940;50.842;4.410;2023-08-08T06:00:57;16.20;99.90
68139;DHT22;54940;50.842;4.410;2023-08-08T06:03:23;15.90;99.90
68139;DHT22;54940;50.842;4.410;2023-08-08T06:05:49;15.60;99.90
68139;DHT22;54940;50.842;4.410;2023-08-08T06:08:14;15.90;99.90
68139;DHT22;54940;50.842;4.410;2023-08-08T06:10:42;15.90;99.90
68139;DHT22;54940;50.842;4.410;2023-08-08T06:13:08;16.20;99.90
68139;DHT22;54940;50.842;4.410;2023-08-08T06:15:34;16.70;99.90
68139;DHT22;54940;50.842;4.410;2023-08-08T06:17:59;17.00;99.90
68139;DHT22;54940;50.842;4.410;2023-08-08T06:20:44;17.50;99.90
68139;DHT22;54940;50.842;4.410;2023-08-08T06:23:10;18.00;99.90
68139;DHT22;54940;50.842;4.410;2023-08-08T06:25:36;18.50;99.90
68139;DHT22;54940;50.842;4.410;2023-08-08T06:28:04;18.90;99.90
68139;DHT22;54940;50.842;4.410;2023-08-08T06:30:31;19.30;99.90
68139;DHT22;54940;50.842;4.410;2023-08-08T06:32:57;19.60;99.90
68139;DHT22;54940;50.842;4.410;2023-08-08T06:35:23;20.10;99.90
68139;DHT22;54940;50.842;4.410;2023-08-08T06:37:48;20.10;99.90
68139;DHT22;54940;50.842;4.410;2023-08-08T06:40:14;20.00;99.90
68139;DHT22;54940;50.842;4.410;2023-08-08T06:42:42;20.00;99.90
68139;DHT22;54940;50.842;4.410;2023-08-08T06:45:08;19.70;99.90
68139;DHT22;54940;50.842;4.410;2023-08-08T06:47:35;19.10;99.90
68139;DHT22;54940;50.842;4.410;2023-08-08T06:50:01;18.90;99.90
68139;DHT22;54940;50.842;4.410;2023-08-08T06:52:26;18.40;99.90
68139;DHT22;54940;50.842;4.410;2023-08-08T06:54:52;18.10;99.90
68139;DHT22;54940;50.842;4.410;2023-08-08T06:57:18;18.20;99.90
68139;DHT22;54940;50.842;4.410;2023-08-08T06:59:43;18.00;99.90
68139;DHT22;54940;50.842;4.410;2023-08-08T07:02:09;17.90;99.90
68139;DHT22;54940;50.842;4.410;2023-08-08T07:04:35;17.80;99.90
68139;DHT22;54940;50.842;4.410;2023-08-08T07:07:00;17.80;99.90
68139;DHT22;54940;50.842;4.410;2023-08-08T07:09:26;17.90;99.90
68139;DHT22;54940;50.842;4.410;2023-08-08T07:11:52;17.70;99.90
68139;DHT22;54940;50.842;4.410;2023-08-08T07:14:18;17.70;99.90
68139;DHT22;54940;50.842;4.410;2023-08-08T07:16:43;17.60;99.90
68139;DHT22;54940;50.842;4.410;2023-08-08T07:19:09;17.60;99.90
68139;DHT22;54940;50.842;4.410;2023-08-08T07:21:37;17.50;99.90
68139;DHT22;54940;50.842;4.410;2023-08-08T07:24:02;17.40;99.90
68139;DHT22;54940;50.842;4.410;2023-08-08T07:26:28;17.30;99.90
68139;DHT22;54940;50.842;4.410;2023-08-08T07:28:54;17.20;99.90
68139;DHT22;54940;50.842;4.410;2023-08-08T07:31:22;17.00;99.90
68139;DHT22;54940;50.842;4.410;2023-08-08T07:33:50;17.10;99.90
68139;DHT22;54940;50.842;4.410;2023-08-08T07:36:15;17.10;99.90
68139;DHT22;54940;50.842;4.410;2023-08-08T07:38:41;17.00;99.90
68139;DHT22;54940;50.842;4.410;2023-08-08T07:41:11;17.10;99.90
68139;DHT22;54940;50.842;4.410;2023-08-08T07:43:37;17.20;99.90
68139;DHT22;54940;50.842;4.410;2023-08-08T07:46:03;17.40;99.90
68139;DHT22;54940;50.842;4.410;2023-08-08T07:48:28;17.50;99.90
68139;DHT22;54940;50.842;4.410;2023-08-08T07:50:54;17.40;99.90
68139;DHT22;54940;50.842;4.410;2023-08-08T07:53:19;17.60;99.90
68139;DHT22;54940;50.842;4.410;2023-08-08T07:55:45;17.70;99.90
68139;DHT22;54940;50.842;4.410;2023-08-08T07:58:11;17.80;99.90
68139;DHT22;54940;50.842;4.410;2023-08-08T08:00:36;17.70;99.90
68139;DHT22;54940;50.842;4.410;2023-08-08T08:03:04;17.70;99.90
68139;DHT22;54940;50.842;4.410;2023-08-08T08:05:30;17.70;99.90
68139;DHT22;54940;50.842;4.410;2023-08-08T08:07:55;17.70;99.90
68139;DHT22;54940;50.842;4.410;2023-08-08T08:10:21;17.60;99.90
68139;DHT22;54940;50.842;4.410;2023-08-08T08:12:49;17.60;99.90
68139;DHT22;54940;50.842;4.410;2023-08-08T08:15:14;17.50;99.90
68139;DHT22;54940;50.842;4.410;2023-08-08T08:17:40;17.60;99.90
68139;DHT22;54940;50.842;4.410;2023-08-08T08:20:10;17.80;99.90
68139;DHT22;54940;50.842;4.410;2023-08-08T08:22:36;17.80;99.90
68139;DHT22;54940;50.842;4.410;2023-08-08T08:25:04;17.70;99.90
68139;DHT22;54940;50.842;4.410;2023-08-08T08:27:30;17.70;99.90
68139;DHT22;54940;50.842;4.410;2023-08-08T08:29:55;17.40;99.90
68139;DHT22;54940;50.842;4.410;2023-08-08T08:32:21;17.50;99.90
68139;DHT22;54940;50.842;4.410;2023-08-08T08:34:47;17.50;99.90
68139;DHT22;54940;50.842;4.410;2023-08-08T08:37:12;17.60;99.90
68139;DHT22;54940;50.842;4.410;2023-08-08T08:39:38;17.80;99.90
68139;DHT22;54940;50.842;4.410;2023-08-08T08:42:07;17.90;99.90
68139;DHT22;54940;50.842;4.410;2023-08-08T08:44:34;18.00;99.90
68139;DHT22;54940;50.842;4.410;2023-08-08T08:47:03;18.00;99.90
68139;DHT22;54940;50.842;4.410;2023-08-08T08:49:35;18.10;99.90
68139;DHT22;54940;50.842;4.410;2023-08-08T08:52:04;18.10;99.90
68139;DHT22;54940;50.842;4.410;2023-08-08T08:54:31;18.10;99.90
68139;DHT22;54940;50.842;4.410;2023-08-08T08:56:57;18.20;99.90
68139;DHT22;54940;50.842;4.410;2023-08-08T08:59:24;18.40;99.90
68139;DHT22;54940;50.842;4.410;2023-08-08T09:01:50;18.40;99.90
68139;DHT22;54940;50.842;4.410;2023-08-08T09:04:19;18.40;99.90
68139;DHT22;54940;50.842;4.410;2023-08-08T09:06:48;18.50;99.90
68139;DHT22;54940;50.842;4.410;2023-08-08T09:09:14;18.60;99.90
68139;DHT22;54940;50.842;4.410;2023-08-08T09:11:44;18.70;99.90
68139;DHT22;54940;50.842;4.410;2023-08-08T09:14:21;18.80;99.90
68139;DHT22;54940;50.842;4.410;2023-08-08T09:16:48;18.70;99.90
68139;DHT22;54940;50.842;4.410;2023-08-08T09:19:15;18.80;99.90
68139;DHT22;54940;50.842;4.410;2023-08-08T09:21:41;18.80;99.90
68139;DHT22;54940;50.842;4.410;2023-08-08T09:24:07;19.00;99.90
68139;DHT22;54940;50.842;4.410;2023-08-08T09:26:33;18.90;99.90
68139;DHT22;54940;50.842;4.410;2023-08-08T09:29:00;18.90;99.90
68139;DHT22;54940;50.842;4.410;2023-08-08T09:31:27;18.90;99.90
68139;DHT22;54940;50.842;4.410;2023-08-08T09:34:00;18.90;99.90
68139;DHT22;54940;50.842;4.410;2023-08-08T09:36:26;19.20;99.90
68139;DHT22;54940;50.842;4.410;2023-08-08T09:38:52;19.30;99.90
68139;DHT22;54940;50.842;4.410;2023-08-08T09:41:19;19.60;99.90
68139;DHT22;54940;50.842;4.410;2023-08-08T09:43:48;19.70;99.90
68139;DHT22;54940;50.842;4.410;2023-08-08T09:46:14;20.00;99.90
68139;DHT22;54940;50.842;4.410;2023-08-08T09:48:41;20.10;99.90
68139;DHT22;54940;50.842;4.410;2023-08-08T09:51:08;20.40;99.90
68139;DHT22;54940;50.842;4.410;2023-08-08T09:53:34;20.60;99.90
68139;DHT22;54940;50.842;4.410;2023-08-08T09:56:03;20.20;99.90
68139;DHT22;54940;50.842;4.410;2023-08-08T09:58:29;20.10;99.90
68139;DHT22;54940;50.842;4.410;2023-08-08T10:00:55;20.10;99.90
68139;DHT22;54940;50.842;4.410;2023-08-08T10:03:21;20.10;99.90
68139;DHT22;54940;50.842;4.410;2023-08-08T10:05:48;20.10;99.90
68139;DHT22;54940;50.842;4.410;2023-08-08T10:08:15;19.90;99.90
68139;DHT22;54940;50.842;4.410;2023-08-08T10:10:46;19.70;99.90
68139;DHT22;54940;50.842;4.410;2023-08-08T10:13:23;19.70;99.90
68139;DHT22;54940;50.842;4.410;2023-08-08T10:15:50;19.60;99.90
68139;DHT22;54940;50.842;4.410;2023-08-08T10:18:20;19.40;99.90
68139;DHT22;54940;50.842;4.410;2023-08-08T10:20:47;19.40;99.90
68139;DHT22;54940;50.842;4.410;2023-08-08T10:23:17;19.30;99.90
68139;DHT22;54940;50.842;4.410;2023-08-08T10:25:50;19.10;99.90
68139;DHT22;54940;50.842;4.410;2023-08-08T10:28:19;19.00;99.90
68139;DHT22;54940;50.842;4.410;2023-08-08T10:30:48;18.90;99.90
68139;DHT22;54940;50.842;4.410;2023-08-08T10:33:20;18.90;99.90
68139;DHT22;54940;50.842;4.410;2023-08-08T10:36:04;18.90;99.90
68139;DHT22;54940;50.842;4.410;2023-08-08T10:38:48;18.80;99.90
68139;DHT22;54940;50.842;4.410;2023-08-08T10:41:20;18.80;99.90
68139;DHT22;54940;50.842;4.410;2023-08-08T10:43:52;18.80;99.90
68139;DHT22;54940;50.842;4.410;2023-08-08T10:46:40;18.80;99.90
68139;DHT22;54940;50.842;4.410;2023-08-08T10:49:06;18.80;99.90
68139;DHT22;54940;50.842;4.410;2023-08-08T10:51:42;18.80;99.90
68139;DHT22;54940;50.842;4.410;2023-08-08T10:54:18;18.60;99.90
68139;DHT22;54940;50.842;4.410;2023-08-08T10:56:51;18.60;99.90
68139;DHT22;54940;50.842;4.410;2023-08-08T10:59:25;18.50;99.90
68139;DHT22;54940;50.842;4.410;2023-08-08T11:01:52;18.50;99.90
68139;DHT22;54940;50.842;4.410;2023-08-08T11:04:19;18.60;99.90
68139;DHT22;54940;50.842;4.410;2023-08-08T11:06:46;18.50;99.90
68139;DHT22;54940;50.842;4.410;2023-08-08T11:09:13;18.50;99.90
68139;DHT22;54940;50.842;4.410;2023-08-08T11:11:43;18.50;99.90
68139;DHT22;54940;50.842;4.410;2023-08-08T11:14:14;18.50;99.90
68139;DHT22;54940;50.842;4.410;2023-08-08T11:16:40;18.70;99.90
68139;DHT22;54940;50.842;4.410;2023-08-08T11:19:06;19.00;99.90
68139;DHT22;54940;50.842;4.410;2023-08-08T11:21:37;19.60;99.90
68139;DHT22;54940;50.842;4.410;2023-08-08T11:24:05;19.90;99.90
68139;DHT22;54940;50.842;4.410;2023-08-08T11:26:34;20.00;99.90
68139;DHT22;54940;50.842;4.410;2023-08-08T11:29:01;19.90;99.90
68139;DHT22;54940;50.842;4.410;2023-08-08T11:31:29;19.90;99.90
68139;DHT22;54940;50.842;4.410;2023-08-08T11:33:56;19.90;99.90
68139;DHT22;54940;50.842;4.410;2023-08-08T11:36:22;19.80;99.90
68139;DHT22;54940;50.842;4.410;2023-08-08T11:38:50;19.70;99.90
68139;DHT22;54940;50.842;4.410;2023-08-08T11:41:17;19.80;99.90
68139;DHT22;54940;50.842;4.410;2023-08-08T11:43:44;19.60;99.90
68139;DHT22;54940;50.842;4.410;2023-08-08T11:46:14;19.60;99.90
68139;DHT22;54940;50.842;4.410;2023-08-08T11:48:41;19.50;99.90
68139;DHT22;54940;50.842;4.410;2023-08-08T11:51:07;19.50;99.90
68139;DHT22;54940;50.842;4.410;2023-08-08T11:53:34;19.50;99.90
68139;DHT22;54940;50.842;4.410;2023-08-08T11:56:00;19.30;99.90
68139;DHT22;54940;50.842;4.410;2023-08-08T11:58:26;19.10;99.90
68139;DHT22;54940;50.842;4.410;2023-08-08T12:00:52;19.00;99.90
68139;DHT22;54940;50.842;4.410;2023-08-08T12:03:20;19.00;99.90
68139;DHT22;54940;50.842;4.410;2023-08-08T12:05:46;19.10;99.90
68139;DHT22;54940;50.842;4.410;2023-08-08T12:08:17;19.30;99.90
68139;DHT22;54940;50.842;4.410;2023-08-08T12:10:50;19.50;99.90
68139;DHT22;54940;50.842;4.410;2023-08-08T12:13:23;19.60;99.90
68139;DHT22;54940;50.842;4.410;2023-08-08T12:15:53;19.70;99.90
68139;DHT22;54940;50.842;4.410;2023-08-08T12:18:19;19.90;99.90
68139;DHT22;54940;50.842;4.410;2023-08-08T12:20:45;19.90;99.90
68139;DHT22;54940;50.842;4.410;2023-08-08T12:23:11;20.20;99.90
68139;DHT22;54940;50.842;4.410;2023-08-08T12:25:43;20.20;99.90
68139;DHT22;54940;50.842;4.410;2023-08-08T12:28:11;20.20;99.90
68139;DHT22;54940;50.842;4.410;2023-08-08T12:30:37;20.20;99.90
68139;DHT22;54940;50.842;4.410;2023-08-08T12:33:02;20.50;99.90
68139;DHT22;54940;50.842;4.410;2023-08-08T12:35:29;20.70;99.90
68139;DHT22;54940;50.842;4.410;2023-08-08T12:37:57;20.80;99.90
68139;DHT22;54940;50.842;4.410;2023-08-08T12:40:25;21.00;99.90
68139;DHT22;54940;50.842;4.410;2023-08-08T12:42:51;21.00;99.90
68139;DHT22;54940;50.842;4.410;2023-08-08T12:45:19;21.10;99.90
68139;DHT22;54940;50.842;4.410;2023-08-08T12:47:44;21.10;99.90
68139;DHT22;54940;50.842;4.410;2023-08-08T12:50:10;21.00;99.90
68139;DHT22;54940;50.842;4.410;2023-08-08T12:52:39;20.80;99.90
68139;DHT22;54940;50.842;4.410;2023-08-08T12:55:08;21.00;99.90
68139;DHT22;54940;50.842;4.410;2023-08-08T12:57:34;21.00;99.90
68139;DHT22;54940;50.842;4.410;2023-08-08T13:00:00;21.30;99.90
68139;DHT22;54940;50.842;4.410;2023-08-08T13:02:26;21.40;99.90
68139;DHT22;54940;50.842;4.410;2023-08-08T13:04:52;21.40;99.90
68139;DHT22;54940;50.842;4.410;2023-08-08T13:07:17;21.30;99.90
68139;DHT22;54940;50.842;4.410;2023-08-08T13:09:43;21.10;99.90
68139;DHT22;54940;50.842;4.410;2023-08-08T13:12:08;20.80;99.90
68139;DHT22;54940;50.842;4.410;2023-08-08T13:14:41;20.80;99.90
68139;DHT22;54940;50.842;4.410;2023-08-08T13:17:07;20.80;99.90
68139;DHT22;54940;50.842;4.410;2023-08-08T13:19:35;20.70;99.90
68139;DHT22;54940;50.842;4.410;2023-08-08T13:22:01;20.70;99.90
68139;DHT22;54940;50.842;4.410;2023-08-08T13:24:29;20.70;99.90
68139;DHT22;54940;50.842;4.410;2023-08-08T13:26:54;20.80;99.90
68139;DHT22;54940;50.842;4.410;2023-08-08T13:29:20;20.70;99.90
68139;DHT22;54940;50.842;4.410;2023-08-08T13:31:46;20.70;99.90
68139;DHT22;54940;50.842;4.410;2023-08-08T13:34:11;20.40;99.90
68139;DHT22;54940;50.842;4.410;2023-08-08T13:36:37;20.30;99.90
68139;DHT22;54940;50.842;4.410;2023-08-08T13:39:03;20.20;99.90
68139;DHT22;54940;50.842;4.410;2023-08-08T13:41:29;20.10;99.90
68139;DHT22;54940;50.842;4.410;2023-08-08T13:43:55;20.20;99.90
68139;DHT22;54940;50.842;4.410;2023-08-08T13:46:21;20.40;99.90
68139;DHT22;54940;50.842;4.410;2023-08-08T13:48:47;20.60;99.90
68139;DHT22;54940;50.842;4.410;2023-08-08T13:51:12;20.70;99.90
68139;DHT22;54940;50.842;4.410;2023-08-08T13:53:38;20.80;99.90
68139;DHT22;54940;50.842;4.410;2023-08-08T13:56:04;20.80;99.90
68139;DHT22;54940;50.842;4.410;2023-08-08T13:58:30;21.00;99.90
68139;DHT22;54940;50.842;4.410;2023-08-08T14:00:58;21.10;99.90
68139;DHT22;54940;50.842;4.410;2023-08-08T14:03:24;21.10;99.90
68139;DHT22;54940;50.842;4.410;2023-08-08T14:05:50;20.90;99.90
68139;DHT22;54940;50.842;4.410;2023-08-08T14:08:19;20.90;99.90
68139;DHT22;54940;50.842;4.410;2023-08-08T14:10:46;20.90;99.90
68139;DHT22;54940;50.842;4.410;2023-08-08T14:13:12;20.90;99.90
68139;DHT22;54940;50.842;4.410;2023-08-08T14:15:40;20.80;99.90
68139;DHT22;54940;50.842;4.410;2023-08-08T14:18:06;20.70;99.90
68139;DHT22;54940;50.842;4.410;2023-08-08T14:20:31;20.60;99.90
68139;DHT22;54940;50.842;4.410;2023-08-08T14:22:57;20.40;99.90
68139;DHT22;54940;50.842;4.410;2023-08-08T14:25:25;20.30;99.90
68139;DHT22;54940;50.842;4.410;2023-08-08T14:27:50;20.20;99.90
68139;DHT22;54940;50.842;4.410;2023-08-08T14:30:19;20.20;99.90
68139;DHT22;54940;50.842;4.410;2023-08-08T14:32:46;20.20;99.90
68139;DHT22;54940;50.842;4.410;2023-08-08T14:35:12;20.00;99.90
68139;DHT22;54940;50.842;4.410;2023-08-08T14:37:38;19.70;99.90
68139;DHT22;54940;50.842;4.410;2023-08-08T14:40:04;19.70;99.90
68139;DHT22;54940;50.842;4.410;2023-08-08T14:42:31;19.70;99.90
68139;DHT22;54940;50.842;4.410;2023-08-08T14:44:56;19.60;99.90
68139;DHT22;54940;50.842;4.410;2023-08-08T14:47:22;19.60;99.90
68139;DHT22;54940;50.842;4.410;2023-08-08T14:49:48;19.50;99.90
68139;DHT22;54940;50.842;4.410;2023-08-08T14:52:15;19.60;99.90
68139;DHT22;54940;50.842;4.410;2023-08-08T14:54:41;19.60;99.90
68139;DHT22;54940;50.842;4.410;2023-08-08T14:57:08;19.50;99.90
68139;DHT22;54940;50.842;4.410;2023-08-08T14:59:33;19.50;99.90
68139;DHT22;54940;50.842;4.410;2023-08-08T15:01:59;19.60;99.90
68139;DHT22;54940;50.842;4.410;2023-08-08T15:04:25;19.50;99.90
68139;DHT22;54940;50.842;4.410;2023-08-08T15:06:53;19.60;99.90
68139;DHT22;54940;50.842;4.410;2023-08-08T15:09:19;19.60;99.90
68139;DHT22;54940;50.842;4.410;2023-08-08T15:11:44;19.50;99.90
68139;DHT22;54940;50.842;4.410;2023-08-08T15:14:10;19.40;99.90
68139;DHT22;54940;50.842;4.410;2023-08-08T15:16:35;19.40;99.90
68139;DHT22;54940;50.842;4.410;2023-08-08T15:19:02;19.30;99.90
68139;DHT22;54940;50.842;4.410;2023-08-08T15:21:30;19.40;99.90
68139;DHT22;54940;50.842;4.410;2023-08-08T15:23:58;19.40;99.90
68139;DHT22;54940;50.842;4.410;2023-08-08T15:26:24;19.30;99.90
68139;DHT22;54940;50.842;4.410;2023-08-08T15:28:50;19.30;99.90
68139;DHT22;54940;50.842;4.410;2023-08-08T15:31:15;19.30;99.90
68139;DHT22;54940;50.842;4.410;2023-08-08T15:33:42;19.20;99.90